createdAt,value
2022-10-09T00:01:32.068Z,6.84
2022-10-09T00:04:00.245Z,6.84
2022-10-09T00:06:34.621Z,6.83
2022-10-09T00:09:03.901Z,6.81
2022-10-09T00:11:34.121Z,6.78
2022-10-09T00:14:02.401Z,6.79
2022-10-09T00:16:30.154Z,6.76
2022-10-09T00:18:58.533Z,6.77
2022-10-09T00:21:33.362Z,6.72
2022-10-09T00:24:03.903Z,6.66
2022-10-09T00:26:32.069Z,6.67
2022-10-09T00:28:59.752Z,6.66
2022-10-09T00:31:26.722Z,6.69
2022-10-09T00:33:53.544Z,6.63
2022-10-09T00:36:25.018Z,6.65
2022-10-09T00:38:55.590Z,6.67
2022-10-09T00:41:28.889Z,6.68
2022-10-09T00:44:00.197Z,6.72
2022-10-09T00:46:57.246Z,6.72
2022-10-09T00:49:31.352Z,6.74
2022-10-09T00:52:07.224Z,6.76
2022-10-09T00:54:41.636Z,6.82
2022-10-09T00:57:12.195Z,6.83
2022-10-09T00:59:40.601Z,6.76
2022-10-09T01:02:08.113Z,6.81
2022-10-09T01:04:37.955Z,6.80
2022-10-09T01:07:24.097Z,6.77
2022-10-09T01:10:15.181Z,6.79
2022-10-09T01:13:11.617Z,6.82
2022-10-09T01:16:05.287Z,6.82
2022-10-09T01:19:02.531Z,6.88
2022-10-09T01:22:01.517Z,6.86
2022-10-09T01:24:50.954Z,6.86
2022-10-09T01:27:26.073Z,6.83
2022-10-09T01:30:04.748Z,6.80
2022-10-09T01:32:38.643Z,6.74
2022-10-09T01:35:10.909Z,6.74
2022-10-09T01:37:43.523Z,6.74
2022-10-09T01:40:29.710Z,6.71
2022-10-09T01:42:58.214Z,6.71
2022-10-09T01:45:25.669Z,6.73
2022-10-09T01:47:52.570Z,6.66
2022-10-09T01:50:34.385Z,6.65
2022-10-09T01:53:11.553Z,6.70
2022-10-09T01:55:58.991Z,6.77
2022-10-09T01:58:55.522Z,6.80
2022-10-09T02:01:33.893Z,6.83
2022-10-09T02:04:10.730Z,6.82
2022-10-09T02:06:41.104Z,6.79
2022-10-09T02:09:15.410Z,6.76
2022-10-09T02:11:51.594Z,6.78
2022-10-09T02:14:18.696Z,6.77
2022-10-09T02:17:09.860Z,6.77
2022-10-09T02:20:03.635Z,6.79
2022-10-09T02:22:33.491Z,6.79
2022-10-09T02:25:06.682Z,6.78
2022-10-09T02:27:35.129Z,6.80
2022-10-09T02:30:04.056Z,6.81
2022-10-09T02:32:30.838Z,6.82
2022-10-09T02:34:57.665Z,6.80
2022-10-09T02:37:24.480Z,6.81
2022-10-09T02:39:51.436Z,6.85
2022-10-09T02:42:18.467Z,6.82
2022-10-09T02:44:45.648Z,6.87
2022-10-09T02:47:12.393Z,6.91
2022-10-09T02:49:39.226Z,6.89
2022-10-09T02:52:09.133Z,6.90
2022-10-09T02:54:35.976Z,6.95
2022-10-09T02:57:02.767Z,6.95
2022-10-09T02:59:29.565Z,6.98
2022-10-09T03:01:56.386Z,6.98
2022-10-09T03:04:23.299Z,6.99
2022-10-09T03:06:50.087Z,6.96
2022-10-09T03:09:16.810Z,6.94
2022-10-09T03:11:46.412Z,6.91
2022-10-09T03:14:13.403Z,6.91
2022-10-09T03:16:40.178Z,6.87
2022-10-09T03:19:07.790Z,6.79
2022-10-09T03:21:34.447Z,6.84
2022-10-09T03:24:01.526Z,6.83
2022-10-09T03:26:28.571Z,6.85
2022-10-09T03:28:56.312Z,6.83
2022-10-09T03:31:51.333Z,6.83
2022-10-09T03:34:13.492Z,6.83
2022-10-09T03:36:40.946Z,6.84
2022-10-09T03:39:09.056Z,6.79
2022-10-09T03:41:35.951Z,6.76
2022-10-09T03:44:02.724Z,6.76
2022-10-09T03:46:29.396Z,6.74
2022-10-09T03:48:56.163Z,6.75
2022-10-09T03:51:22.878Z,6.75
2022-10-09T03:53:50.182Z,6.70
2022-10-09T03:56:16.868Z,6.65
2022-10-09T03:58:46.840Z,6.67
2022-10-09T04:01:13.679Z,6.64
2022-10-09T04:03:40.469Z,6.64
2022-10-09T04:06:07.374Z,6.65
2022-10-09T04:08:35.959Z,6.62
2022-10-09T04:11:03.622Z,6.61
2022-10-09T04:13:30.411Z,6.62
2022-10-09T04:15:57.649Z,6.60
2022-10-09T04:18:25.224Z,6.54
2022-10-09T04:20:56.370Z,6.57
2022-10-09T04:23:27.934Z,6.51
2022-10-09T04:26:00.778Z,6.50
2022-10-09T04:28:30.616Z,6.51
2022-10-09T04:30:59.512Z,6.47
2022-10-09T04:33:27.451Z,6.44
2022-10-09T04:35:56.641Z,6.43
2022-10-09T04:38:25.675Z,6.36
2022-10-09T04:41:05.798Z,6.35
2022-10-09T04:43:35.327Z,6.35
2022-10-09T04:46:13.307Z,6.34
2022-10-09T04:48:46.647Z,6.37
2022-10-09T04:51:16.001Z,6.41
2022-10-09T04:53:48.730Z,6.50
2022-10-09T04:56:20.233Z,6.52
2022-10-09T04:58:48.530Z,6.58
2022-10-09T05:01:23.853Z,6.50
2022-10-09T05:03:52.611Z,6.49
2022-10-09T05:06:22.199Z,6.53
2022-10-09T05:08:49.677Z,6.52
2022-10-09T05:11:23.628Z,6.51
2022-10-09T05:13:58.726Z,6.55
2022-10-09T05:16:29.459Z,6.54
2022-10-09T05:19:00.587Z,6.51
2022-10-09T05:21:29.788Z,6.50
2022-10-09T05:23:57.136Z,6.55
2022-10-09T05:26:26.642Z,6.55
2022-10-09T05:28:53.490Z,6.50
2022-10-09T05:31:28.226Z,6.46
2022-10-09T05:33:59.485Z,6.49
2022-10-09T05:36:26.403Z,6.43
2022-10-09T05:38:53.344Z,6.39
2022-10-09T05:41:20.389Z,6.38
2022-10-09T05:43:49.903Z,6.43
2022-10-09T05:46:25.310Z,6.56
2022-10-09T05:49:06.297Z,6.57
2022-10-09T05:51:37.874Z,6.59
2022-10-09T05:54:07.039Z,6.63
2022-10-09T05:56:39.248Z,6.71
2022-10-09T05:59:19.559Z,6.69
2022-10-09T06:01:52.135Z,6.76
2022-10-09T06:04:24.993Z,6.86
2022-10-09T06:06:54.768Z,6.87
2022-10-09T06:09:26.671Z,6.86
2022-10-09T06:11:55.033Z,6.83
2022-10-09T06:14:22.576Z,6.83
2022-10-09T06:16:50.126Z,6.91
2022-10-09T06:19:20.179Z,6.98
2022-10-09T06:21:49.213Z,7.03
2022-10-09T06:24:29.085Z,7.09
2022-10-09T06:26:59.744Z,7.17
2022-10-09T06:29:26.904Z,7.22
2022-10-09T06:31:53.848Z,7.35
2022-10-09T06:34:20.812Z,7.46
2022-10-09T06:36:47.810Z,7.54
2022-10-09T06:39:15.411Z,7.64
2022-10-09T06:41:44.698Z,7.68
2022-10-09T06:44:17.297Z,7.77
2022-10-09T06:46:49.827Z,7.89
2022-10-09T06:49:16.902Z,7.99
2022-10-09T06:51:44.019Z,8.10
2022-10-09T06:54:18.698Z,8.20
2022-10-09T06:56:48.764Z,8.25
2022-10-09T06:59:15.484Z,8.37
2022-10-09T07:01:44.255Z,8.61
2022-10-09T07:04:15.209Z,8.97
2022-10-09T07:06:47.632Z,9.42
2022-10-09T07:09:16.491Z,9.62
2022-10-09T07:11:50.346Z,10.03
2022-10-09T07:14:20.568Z,10.39
2022-10-09T07:16:48.980Z,10.76
2022-10-09T07:19:18.582Z,11.06
2022-10-09T07:21:50.100Z,11.25
2022-10-09T07:24:20.511Z,11.51
2022-10-09T07:26:48.837Z,11.82
2022-10-09T07:29:19.131Z,11.83
2022-10-09T07:31:50.004Z,12.11
2022-10-09T07:34:16.884Z,12.19
2022-10-09T07:36:46.763Z,12.26
2022-10-09T07:39:13.904Z,12.44
2022-10-09T07:41:40.836Z,12.60
2022-10-09T07:44:07.728Z,12.88
2022-10-09T07:46:35.124Z,13.16
2022-10-09T07:49:10.786Z,13.42
2022-10-09T07:51:38.054Z,13.66
2022-10-09T07:54:06.933Z,13.99
2022-10-09T07:56:38.225Z,14.24
2022-10-09T07:59:11.957Z,14.20
2022-10-09T08:01:45.396Z,14.09
2022-10-09T08:04:13.106Z,14.06
2022-10-09T08:06:40.658Z,13.98
2022-10-09T08:09:11.600Z,13.97
2022-10-09T08:11:40.847Z,13.74
2022-10-09T08:14:10.115Z,13.99
2022-10-09T08:16:37.194Z,14.23
2022-10-09T08:19:04.616Z,14.47
2022-10-09T08:21:32.918Z,14.60
2022-10-09T08:24:00.958Z,14.83
2022-10-09T08:26:30.876Z,14.82
2022-10-09T08:29:05.802Z,14.90
2022-10-09T08:31:32.763Z,14.98
2022-10-09T08:34:03.666Z,15.20
2022-10-09T08:36:31.685Z,15.44
2022-10-09T08:39:02.079Z,15.50
2022-10-09T08:41:56.204Z,15.60
2022-10-09T08:44:33.414Z,15.52
2022-10-09T08:47:23.964Z,15.83
2022-10-09T08:50:12.911Z,16.05
2022-10-09T08:53:16.730Z,16.04
2022-10-09T08:56:01.250Z,16.45
2022-10-09T08:58:40.423Z,16.56
2022-10-09T09:01:31.463Z,16.55
2022-10-09T09:04:13.287Z,16.45
2022-10-09T09:07:26.312Z,16.19
2022-10-09T09:10:47.037Z,16.32
2022-10-09T09:13:53.007Z,16.67
2022-10-09T09:16:35.228Z,16.78
2022-10-09T09:19:25.875Z,16.50
2022-10-09T09:21:53.975Z,16.37
2022-10-09T09:24:45.906Z,16.17
2022-10-09T09:27:37.633Z,16.04
2022-10-09T09:30:04.929Z,16.02
2022-10-09T09:32:34.090Z,16.14
2022-10-09T09:35:30.013Z,16.40
2022-10-09T09:37:57.034Z,16.68
2022-10-09T09:40:38.273Z,16.83
2022-10-09T09:43:18.974Z,16.77
2022-10-09T09:45:55.792Z,16.68
2022-10-09T09:48:36.072Z,16.70
2022-10-09T09:51:30.006Z,16.83
2022-10-09T09:54:00.501Z,17.02
2022-10-09T09:59:48.954Z,17.01
2022-10-09T10:02:21.364Z,17.13
2022-10-09T10:05:06.117Z,17.06
2022-10-09T10:07:43.372Z,17.12
2022-10-09T10:10:15.578Z,17.14
2022-10-09T10:12:54.876Z,17.19
2022-10-09T10:15:33.468Z,17.24
2022-10-09T10:18:10.429Z,17.31
2022-10-09T10:20:58.815Z,17.48
2022-10-09T10:23:42.843Z,17.77
2022-10-09T10:26:50.740Z,17.58
2022-10-09T10:29:44.004Z,17.74
2022-10-09T10:32:27.339Z,17.87
2022-10-09T10:35:14.765Z,17.99
2022-10-09T10:37:58.168Z,17.79
2022-10-09T10:40:44.017Z,17.86
2022-10-09T10:43:10.632Z,17.83
2022-10-09T10:45:56.942Z,17.92
2022-10-09T10:48:41.369Z,17.78
2022-10-09T10:51:38.599Z,17.76
2022-10-09T10:54:39.809Z,17.58
2022-10-09T10:57:51.550Z,17.45
2022-10-09T11:00:20.415Z,17.87
2022-10-09T11:03:41.419Z,17.66
2022-10-09T11:06:32.941Z,16.92
2022-10-09T11:09:18.141Z,16.50
2022-10-09T11:12:03.905Z,16.17
2022-10-09T11:15:17.058Z,16.70
2022-10-09T11:18:35.555Z,16.85
2022-10-09T11:21:26.136Z,16.20
2022-10-09T11:24:57.630Z,15.62
2022-10-09T11:27:53.513Z,15.28
2022-10-09T11:30:21.223Z,15.08
2022-10-09T11:33:40.129Z,15.13
2022-10-09T11:36:37.394Z,15.58
2022-10-09T11:39:20.317Z,15.93
2022-10-09T11:41:55.307Z,16.08
2022-10-09T11:44:55.919Z,16.40
2022-10-09T11:47:42.729Z,16.59
2022-10-09T11:50:49.445Z,16.59
2022-10-09T11:53:24.382Z,16.60
2022-10-09T11:56:08.372Z,16.52
2022-10-09T11:58:37.998Z,16.33
2022-10-09T12:01:32.767Z,16.11
2022-10-09T12:04:50.036Z,16.15
2022-10-09T12:07:13.198Z,16.07
2022-10-09T12:09:49.197Z,16.11
2022-10-09T12:12:15.795Z,16.29
2022-10-09T12:14:48.497Z,16.43
2022-10-09T12:17:35.520Z,16.35
2022-10-09T12:20:22.774Z,16.29
2022-10-09T12:23:25.581Z,16.20
2022-10-09T12:25:50.106Z,16.11
2022-10-09T12:28:41.495Z,16.08
2022-10-09T12:31:24.967Z,16.02
2022-10-09T12:34:20.839Z,15.62
2022-10-09T12:36:47.557Z,15.64
2022-10-09T12:39:24.323Z,15.58
2022-10-09T12:41:58.347Z,15.80
2022-10-09T12:44:39.901Z,16.00
2022-10-09T12:47:27.084Z,16.22
2022-10-09T12:50:27.137Z,16.16
2022-10-09T12:53:13.296Z,16.20
2022-10-09T12:56:01.746Z,15.71
2022-10-09T12:58:42.163Z,15.65
2022-10-09T13:01:17.919Z,15.93
2022-10-09T13:04:05.664Z,16.01
2022-10-09T13:06:50.134Z,16.26
2022-10-09T13:09:37.895Z,16.44
2022-10-09T13:12:28.432Z,16.32
2022-10-09T13:15:04.216Z,16.43
2022-10-09T13:17:41.366Z,16.43
2022-10-09T13:20:19.060Z,16.53
2022-10-09T13:23:03.212Z,16.35
2022-10-09T13:25:38.892Z,15.99
2022-10-09T13:28:06.552Z,15.76
2022-10-09T13:30:34.565Z,15.35
2022-10-09T13:33:16.725Z,15.04
2022-10-09T13:35:47.970Z,15.02
2022-10-09T13:38:22.515Z,15.09
2022-10-09T13:40:49.690Z,15.45
2022-10-09T13:43:29.109Z,15.82
2022-10-09T13:45:55.846Z,15.71
2022-10-09T13:48:23.325Z,15.53
2022-10-09T13:50:54.371Z,15.44
2022-10-09T13:53:21.106Z,15.17
2022-10-09T13:55:47.870Z,14.89
2022-10-09T13:58:14.761Z,14.57
2022-10-09T14:00:45.737Z,14.40
2022-10-09T14:03:14.986Z,14.18
2022-10-09T14:05:41.954Z,14.26
2022-10-09T14:08:10.612Z,14.80
2022-10-09T14:10:44.465Z,15.29
2022-10-09T14:13:14.658Z,15.10
2022-10-09T14:15:42.330Z,14.90
2022-10-09T14:18:09.927Z,14.72
2022-10-09T14:20:36.785Z,14.76
2022-10-09T14:23:03.571Z,15.14
2022-10-09T14:25:33.516Z,15.42
2022-10-09T14:28:00.359Z,15.49
2022-10-09T14:30:27.555Z,15.43
2022-10-09T14:32:55.308Z,15.48
2022-10-09T14:35:22.280Z,15.18
2022-10-09T14:37:49.386Z,15.01
2022-10-09T14:40:16.224Z,14.83
2022-10-09T14:42:43.304Z,14.35
2022-10-09T14:45:11.174Z,14.12
2022-10-09T14:47:38.082Z,13.75
2022-10-09T14:50:07.812Z,13.74
2022-10-09T14:52:34.822Z,14.09
2022-10-09T14:55:02.035Z,14.43
2022-10-09T14:57:32.954Z,14.68
2022-10-09T15:00:05.983Z,14.82
2022-10-09T15:02:32.954Z,14.98
2022-10-09T15:05:00.003Z,15.24
2022-10-09T15:07:28.297Z,15.30
2022-10-09T15:09:57.141Z,15.06
2022-10-09T15:12:24.372Z,15.16
2022-10-09T15:14:51.727Z,15.20
2022-10-09T15:17:18.688Z,15.02
2022-10-09T15:19:48.647Z,14.48
2022-10-09T15:22:15.458Z,13.90
2022-10-09T15:24:42.432Z,13.71
2022-10-09T15:27:09.436Z,13.32
2022-10-09T15:29:36.464Z,13.01
2022-10-09T15:32:03.984Z,12.77
2022-10-09T15:34:31.125Z,12.53
2022-10-09T15:36:58.580Z,12.26
2022-10-09T15:39:25.629Z,12.08
2022-10-09T15:41:52.748Z,11.98
2022-10-09T15:44:21.130Z,11.80
2022-10-09T15:46:50.247Z,11.61
2022-10-09T15:49:18.013Z,11.44
2022-10-09T15:51:45.374Z,11.25
2022-10-09T15:54:14.379Z,11.10
2022-10-09T15:56:42.463Z,10.96
2022-10-09T15:59:17.141Z,10.83
2022-10-09T16:01:46.361Z,10.74
2022-10-09T16:04:16.236Z,10.69
2022-10-09T16:06:46.137Z,10.54
2022-10-09T16:09:13.261Z,10.45
2022-10-09T16:11:40.215Z,10.32
2022-10-09T16:14:07.043Z,10.23
2022-10-09T16:16:33.878Z,10.20
2022-10-09T16:19:06.685Z,10.08
2022-10-09T16:21:33.695Z,9.93
2022-10-09T16:24:00.950Z,9.84
2022-10-09T16:26:29.957Z,9.72
2022-10-09T16:28:59.523Z,9.59
2022-10-09T16:31:37.561Z,9.46
2022-10-09T16:34:08.070Z,9.26
2022-10-09T16:36:35.666Z,9.13
2022-10-09T16:39:02.847Z,8.96
2022-10-09T16:41:29.676Z,8.81
2022-10-09T16:43:57.970Z,8.69
2022-10-09T16:49:03.797Z,8.48
2022-10-09T16:51:36.567Z,8.41
2022-10-09T16:54:06.848Z,8.32
2022-10-09T16:56:40.437Z,8.23
2022-10-09T16:59:12.913Z,8.11
2022-10-09T17:01:43.713Z,7.99
2022-10-09T17:04:13.008Z,7.91
2022-10-09T17:06:54.503Z,7.84
2022-10-09T17:09:22.221Z,7.74
2022-10-09T17:11:52.684Z,7.70
2022-10-09T17:14:22.925Z,7.67
2022-10-09T17:16:50.320Z,7.60
2022-10-09T17:19:17.262Z,7.54
2022-10-09T17:21:44.319Z,7.56
2022-10-09T17:24:15.680Z,7.54
2022-10-09T17:26:43.017Z,7.48
2022-10-09T17:29:12.123Z,7.47
2022-10-09T17:31:39.177Z,7.41
2022-10-09T17:34:06.955Z,7.39
2022-10-09T17:36:40.176Z,7.35
2022-10-09T17:39:18.025Z,7.31
2022-10-09T17:41:48.395Z,7.27
2022-10-09T17:44:21.325Z,7.21
2022-10-09T17:46:48.225Z,7.18
2022-10-09T17:49:15.211Z,7.15
2022-10-09T17:51:42.129Z,7.20
2022-10-09T17:54:17.440Z,7.13
2022-10-09T17:56:47.037Z,7.09
2022-10-09T17:59:15.952Z,7.07
2022-10-09T18:01:43.959Z,7.00
2022-10-09T18:04:18.213Z,6.97
2022-10-09T18:06:46.737Z,6.94
2022-10-09T18:09:13.455Z,6.90
2022-10-09T18:11:40.609Z,6.85
2022-10-09T18:14:07.661Z,6.83
2022-10-09T18:16:37.958Z,6.80
2022-10-09T18:19:15.385Z,6.75
2022-10-09T18:21:47.716Z,6.72
2022-10-09T18:24:15.968Z,6.72
2022-10-09T18:26:46.211Z,6.69
2022-10-09T18:29:14.539Z,6.69
2022-10-09T18:31:41.827Z,6.63
2022-10-09T18:34:11.342Z,6.64
2022-10-09T18:36:39.394Z,6.60
2022-10-09T18:39:13.747Z,6.55
2022-10-09T18:41:43.432Z,6.54
2022-10-09T18:44:17.733Z,6.47
2022-10-09T18:46:59.375Z,6.46
2022-10-09T18:49:32.035Z,6.42
2022-10-09T18:52:05.835Z,6.44
2022-10-09T18:54:32.980Z,6.47
2022-10-09T18:57:02.086Z,6.49
2022-10-09T18:59:29.693Z,6.49
2022-10-09T19:01:56.536Z,6.51
2022-10-09T19:04:23.523Z,6.53
2022-10-09T19:06:51.497Z,6.52
2022-10-09T19:09:18.438Z,6.52
2022-10-09T19:11:45.627Z,6.49
2022-10-09T19:14:12.804Z,6.51
2022-10-09T19:16:39.817Z,6.49
2022-10-09T19:19:07.049Z,6.45
2022-10-09T19:21:36.400Z,6.45
2022-10-09T19:24:08.926Z,6.46
2022-10-09T19:26:35.992Z,6.49
2022-10-09T19:29:07.051Z,6.47
2022-10-09T19:31:35.808Z,6.54
2022-10-09T19:34:05.410Z,6.63
2022-10-09T19:36:34.477Z,6.71
2022-10-09T19:39:04.280Z,6.79
2022-10-09T19:41:31.734Z,6.73
2022-10-09T19:44:00.671Z,6.68
2022-10-09T19:46:28.528Z,6.81
2022-10-09T19:48:55.739Z,6.86
2022-10-09T19:51:27.301Z,6.84
2022-10-09T19:53:54.988Z,6.87
2022-10-09T19:56:29.634Z,6.90
2022-10-09T19:58:58.628Z,6.98
2022-10-09T20:01:30.781Z,7.05
2022-10-09T20:04:09.612Z,7.08
2022-10-09T20:06:43.508Z,7.08
2022-10-09T20:09:15.610Z,7.19
2022-10-09T20:11:48.686Z,7.16
2022-10-09T20:14:15.841Z,7.20
2022-10-09T20:16:43.133Z,7.24
2022-10-09T20:19:10.113Z,7.17
2022-10-09T20:21:37.035Z,7.21
2022-10-09T20:24:06.226Z,7.22
2022-10-09T20:26:43.773Z,7.23
2022-10-09T20:29:10.921Z,7.21
2022-10-09T20:31:38.230Z,7.15
2022-10-09T20:34:05.589Z,7.20
2022-10-09T20:36:39.338Z,7.28
2022-10-09T20:39:24.235Z,7.44
2022-10-09T20:41:51.640Z,7.61
2022-10-09T20:44:18.623Z,7.68
2022-10-09T20:46:49.692Z,7.72
2022-10-09T20:49:16.804Z,7.72
2022-10-09T20:51:46.366Z,7.73
2022-10-09T20:54:22.107Z,7.71
2022-10-09T20:56:52.886Z,7.75
2022-10-09T20:59:22.710Z,7.86
2022-10-09T21:01:51.950Z,7.99
2022-10-09T21:04:19.263Z,8.10
2022-10-09T21:06:46.507Z,8.09
2022-10-09T21:09:13.833Z,8.04
2022-10-09T21:11:41.835Z,8.05
2022-10-09T21:14:10.643Z,8.01
2022-10-09T21:16:37.615Z,8.11
2022-10-09T21:19:06.559Z,8.19
2022-10-09T21:21:37.028Z,8.23
2022-10-09T21:24:04.443Z,8.22
2022-10-09T21:26:36.131Z,8.22
2022-10-09T21:29:05.625Z,8.33
2022-10-09T21:31:34.637Z,8.25
2022-10-09T21:34:02.628Z,8.19
2022-10-09T21:37:02.279Z,8.23
2022-10-09T21:39:31.700Z,8.21
2022-10-09T21:42:02.164Z,8.24
2022-10-09T21:44:35.305Z,8.33
2022-10-09T21:47:07.098Z,8.34
2022-10-09T21:49:35.246Z,8.41
2022-10-09T21:52:02.104Z,8.40
2022-10-09T21:54:29.250Z,8.24
2022-10-09T21:56:56.090Z,8.18
2022-10-09T21:59:24.286Z,8.18
2022-10-09T22:01:54.170Z,8.20
2022-10-09T22:04:21.422Z,8.26
2022-10-09T22:06:48.290Z,8.28
2022-10-09T22:09:15.525Z,8.32
2022-10-09T22:11:44.533Z,8.30
2022-10-09T22:14:12.386Z,8.25
2022-10-09T22:16:39.547Z,8.08
2022-10-09T22:19:06.352Z,8.07
2022-10-09T22:21:33.425Z,8.07
2022-10-09T22:24:01.519Z,8.11
2022-10-09T22:26:28.294Z,8.11
2022-10-09T22:28:55.069Z,8.10
2022-10-09T22:31:26.302Z,8.07
2022-10-09T22:34:02.574Z,8.04
2022-10-09T22:36:34.058Z,8.05
2022-10-09T22:39:05.968Z,8.04
2022-10-09T22:41:34.375Z,7.99
2022-10-09T22:44:03.442Z,7.98
2022-10-09T22:46:44.998Z,7.89
2022-10-09T22:49:16.025Z,7.85
2022-10-09T22:51:47.434Z,7.84
2022-10-09T22:54:17.270Z,7.87
2022-10-09T22:56:46.287Z,7.84
2022-10-09T22:59:18.349Z,7.84
2022-10-09T23:01:53.777Z,7.78
2022-10-09T23:04:22.818Z,7.70
2022-10-09T23:06:57.550Z,7.72
2022-10-09T23:09:30.207Z,7.67
2022-10-09T23:11:59.582Z,7.62
2022-10-09T23:14:27.024Z,7.62
2022-10-09T23:16:53.927Z,7.56
2022-10-09T23:19:21.989Z,7.54
2022-10-09T23:21:48.907Z,7.48
2022-10-09T23:24:17.753Z,7.54
2022-10-09T23:26:50.027Z,7.71
2022-10-09T23:29:20.474Z,7.71
2022-10-09T23:31:48.574Z,7.60
2022-10-09T23:34:18.294Z,7.59
2022-10-09T23:36:44.943Z,7.56
2022-10-09T23:39:13.057Z,7.59
2022-10-09T23:41:40.325Z,7.68
2022-10-09T23:44:07.079Z,7.65
2022-10-09T23:46:34.010Z,7.57
2022-10-09T23:49:01.334Z,7.47
2022-10-09T23:51:29.301Z,7.34
2022-10-09T23:53:58.131Z,7.26
2022-10-09T23:56:36.425Z,7.17
2022-10-09T23:59:11.525Z,7.25
